Time;durP1;ratioP1;P1;durP2;ratioP2;P2;SDS_P1;SDS_P2;PMS_P1;PMS_P2;Temp;Humidity;BMP_temperature;BMP_pressure;BME280_temperature;BME280_humidity;BME280_pressure;Samples;Min_cycle;Max_cycle;Signal;HPM_P1;HPM_P2
2022/01/01 00:02:07;;;;;;;231.35;132.40;;;;;;;-142.75;100.00;78074.50;5088050;28;20664;-72
2022/01/01 00:04:32;;;;;;;219.63;132.10;;;;;;;-142.75;100.00;78066.63;5088067;28;20032;-70
2022/01/01 00:06:57;;;;;;;249.70;143.98;;;;;;;-142.75;100.00;78068.59;5088333;28;20024;-70
2022/01/01 00:09:23;;;;;;;210.80;121.97;;;;;;;-142.75;100.00;78070.56;5088040;28;20119;-70
2022/01/01 00:11:48;;;;;;;215.43;125.07;;;;;;;-142.75;100.00;78064.66;5087561;28;20335;-70
2022/01/01 00:14:13;;;;;;;204.10;108.57;;;;;;;-142.75;100.00;78062.69;5088779;28;20020;-70
2022/01/01 00:16:39;;;;;;;169.52;96.63;;;;;;;-142.75;100.00;78066.63;5088912;28;20510;-70
2022/01/01 00:19:04;;;;;;;158.82;87.65;;;;;;;-142.75;100.00;78058.72;5088702;28;20103;-70
2022/01/01 00:21:30;;;;;;;161.63;84.13;;;;;;;-142.75;100.00;78054.81;5085972;28;20055;-69
2022/01/01 00:23:55;;;;;;;245.95;139.55;;;;;;;-142.75;100.00;78048.88;5087708;28;20028;-70
2022/01/01 00:26:20;;;;;;;171.50;94.95;;;;;;;-142.75;100.00;78042.97;5088602;28;20084;-70
2022/01/01 00:28:45;;;;;;;151.18;81.10;;;;;;;-142.75;100.00;78035.09;5087628;28;20057;-70
2022/01/01 00:31:11;;;;;;;137.57;74.82;;;;;;;-142.75;100.00;78023.28;5063583;22;20057;-70
2022/01/01 00:33:37;;;;;;;145.20;72.25;;;;;;;-142.75;100.00;78019.34;5008231;28;20069;-68
2022/01/01 00:36:02;;;;;;;126.72;67.53;;;;;;;-142.75;100.00;78037.06;5009898;28;20030;-68
2022/01/01 14:37:02;;;;;;;50.13;25.27;;;;;;;-142.75;100.00;77631.44;5066328;28;20428;-69
2022/01/01 14:39:27;;;;;;;34.92;23.45;;;;;;;-142.75;100.00;77621.59;5065853;28;20059;-69
2022/01/01 14:41:52;;;;;;;13.68;8.60;;;;;;;-142.75;100.00;77617.66;5063434;28;20526;-69
2022/01/01 14:44:18;;;;;;;17.83;8.45;;;;;;;-142.75;100.00;77609.78;5065515;28;20581;-69
2022/01/01 14:46:52;;;;;;;14.10;8.77;;;;;;;-142.75;100.00;77611.75;5065667;28;20017;-70
2022/01/01 14:49:47;;;;;;;9.95;6.88;;;;;;;-142.75;100.00;77617.66;5063793;28;20020;-69
2022/01/01 14:52:21;;;;;;;10.48;6.60;;;;;;;-142.75;100.00;77590.09;5065591;28;20029;-69
2022/01/01 14:55:04;;;;;;;11.32;5.63;;;;;;;-142.75;100.00;77588.13;5065590;28;20028;-69
2022/01/01 14:57:38;;;;;;;9.85;6.72;;;;;;;-142.75;100.00;77580.25;5064127;28;20085;-69
2022/01/01 15:00:08;;;;;;;10.30;6.20;;;;;;;-142.75;100.00;77566.47;5063503;28;20029;-69
2022/01/01 15:02:33;;;;;;;10.18;5.00;;;;;;;-142.75;100.00;77572.38;5065937;28;20474;-69
2022/01/01 15:05:02;;;;;;;9.15;4.93;;;;;;;-142.75;100.00;77572.38;5064457;28;20033;-69
2022/01/01 15:07:29;;;;;;;8.93;5.35;;;;;;;-142.75;100.00;77556.63;5064138;28;20547;-69
2022/01/01 15:09:56;;;;;;;8.18;5.68;;;;;;;-142.75;100.00;77558.59;5061642;28;20052;-69
2022/01/01 15:12:22;;;;;;;11.70;8.82;;;;;;;-142.75;100.00;77544.81;5065227;28;20040;-68
2022/01/01 15:14:48;;;;;;;13.95;8.82;;;;;;;-142.75;100.00;77546.78;5063292;28;20037;-70
2022/01/01 15:17:14;;;;;;;21.50;14.35;;;;;;;-142.75;100.00;77550.72;5079455;28;20486;-70
2022/01/01 15:19:45;;;;;;;13.85;8.68;;;;;;;-142.75;100.00;77542.84;5078073;28;20404;-68
2022/01/01 15:22:15;;;;;;;12.95;7.35;;;;;;;-142.75;100.00;77534.97;5065265;28;20036;-69
2022/01/01 15:24:44;;;;;;;9.95;5.57;;;;;;;-142.75;100.00;77542.84;5065238;28;20039;-68
2022/01/01 15:27:10;;;;;;;11.27;6.43;;;;;;;-142.75;100.00;77546.78;5068544;28;20064;-67
2022/01/01 15:37:49;;;;;;;10.77;6.43;;;;;;;-142.75;100.00;77534.97;5064665;28;20041;-68
2022/01/01 15:40:18;;;;;;;9.65;5.38;;;;;;;-142.75;100.00;77534.97;5063282;28;20036;-69
2022/01/01 15:42:44;;;;;;;11.75;5.55;;;;;;;-142.75;100.00;77527.09;5064337;28;20031;-69
2022/01/01 15:45:10;;;;;;;18.23;8.73;;;;;;;-142.75;100.00;77533.00;5064130;28;20027;-69
2022/01/01 15:47:36;;;;;;;16.42;9.73;;;;;;;-142.75;100.00;77529.06;5055041;28;20029;-69
2022/01/01 15:50:03;;;;;;;10.55;6.78;;;;;;;-142.75;100.00;77527.09;5050173;28;20047;-69
2022/01/01 15:52:28;;;;;;;11.15;6.07;;;;;;;-142.75;100.00;77529.06;5064635;28;20040;-70
2022/01/01 15:54:56;;;;;;;6.65;4.53;;;;;;;-142.75;100.00;77529.06;5069372;28;20067;-70
2022/01/01 15:57:28;;;;;;;9.45;4.45;;;;;;;-142.75;100.00;77538.91;5070962;28;20024;-70
2022/01/01 16:00:22;;;;;;;8.93;4.32;;;;;;;-142.75;100.00;77531.03;5069651;28;20036;-69
2022/01/01 16:03:11;;;;;;;8.10;4.78;;;;;;;-142.75;100.00;77523.16;5070088;28;20447;-70
2022/01/01 16:05:49;;;;;;;10.82;4.07;;;;;;;-142.75;100.00;77523.16;5070748;28;20112;-70
2022/01/01 16:08:20;;;;;;;8.63;4.30;;;;;;;-142.75;100.00;77525.13;5070430;28;20028;-70
2022/01/01 16:10:54;;;;;;;410.67;214.10;;;;;;;-142.75;100.00;77513.31;5070187;28;20506;-70
2022/01/01 16:13:21;;;;;;;370.08;238.30;;;;;;;-142.75;100.00;77507.41;5070879;28;20024;-69
2022/01/01 16:15:57;;;;;;;39.00;28.80;;;;;;;-142.75;100.00;77499.53;5070800;28;20021;-69
2022/01/01 16:18:34;;;;;;;113.85;70.88;;;;;;;-142.75;100.00;77505.44;5070370;28;20512;-70
2022/01/01 16:21:00;;;;;;;;;;;;;;;-142.75;100.00;77505.44;5070055;28;20136;-69
2022/01/01 16:23:28;;;;;;;31.98;26.25;;;;;;;-142.75;100.00;77507.41;5070274;28;20006;-69
2022/01/01 16:25:57;;;;;;;46.67;31.95;;;;;;;-142.75;100.00;77507.41;5070104;28;20122;-70
2022/01/01 16:28:24;;;;;;;9.05;6.22;;;;;;;-142.75;100.00;77499.53;5070217;28;20028;-70
2022/01/01 16:30:50;;;;;;;6.50;3.25;;;;;;;-142.75;100.00;77491.66;5069588;28;20032;-70
2022/01/01 16:33:16;;;;;;;5.93;3.08;;;;;;;-142.75;100.00;77487.72;5070246;28;20881;-70
2022/01/01 16:35:47;;;;;;;4.80;3.17;;;;;;;-142.75;100.00;77483.78;5069838;28;20066;-71
2022/01/01 16:38:13;;;;;;;6.38;3.15;;;;;;;-142.75;100.00;77470.00;5070022;28;20382;-70
2022/01/01 16:40:43;;;;;;;;;;;;;;;-142.75;100.00;77473.94;5069658;28;20025;-70
2022/01/01 16:43:13;;;;;;;4.47;2.63;;;;;;;-142.75;100.00;77471.97;5065028;28;19954;-70
2022/01/01 16:46:09;;;;;;;7.35;3.42;;;;;;;-142.75;100.00;77456.22;5048638;28;20025;-70
2022/01/01 16:48:55;;;;;;;5.50;2.58;;;;;;;-142.75;100.00;77452.25;5045154;28;20043;-71
2022/01/01 16:51:41;;;;;;;5.90;2.70;;;;;;;-142.75;100.00;77456.22;5047727;28;20021;-71
2022/01/01 16:54:07;;;;;;;6.60;3.20;;;;;;;-142.75;100.00;77460.13;5049759;28;20049;-70
2022/01/01 16:56:35;;;;;;;6.18;2.65;;;;;;;-142.75;100.00;77454.25;5048353;28;20017;-71
2022/01/01 16:59:01;;;;;;;6.80;2.78;;;;;;;-142.75;100.00;77460.13;5048566;28;20032;-70
2022/01/01 17:01:29;;;;;;;5.18;2.10;;;;;;;-142.75;100.00;77462.13;5048944;28;20029;-71
2022/01/01 17:04:14;;;;;;;5.35;2.83;;;;;;;-142.75;100.00;77456.22;5051742;28;20088;-70
2022/01/01 17:06:47;;;;;;;4.40;2.40;;;;;;;-142.75;100.00;77466.03;5057899;28;20040;-69
2022/01/01 17:09:12;;;;;;;6.25;2.80;;;;;;;-142.75;100.00;77462.13;5048413;28;20025;-70
2022/01/01 17:11:38;;;;;;;6.78;2.90;;;;;;;-142.75;100.00;77468.03;5048613;28;20029;-71
2022/01/01 17:14:08;;;;;;;;;;;;;;;-142.75;100.00;77456.22;5050088;28;20074;-70
2022/01/01 17:16:53;;;;;;;7.55;2.72;;;;;;;-142.75;100.00;77460.13;5049490;28;19913;-71
2022/01/01 17:19:50;;;;;;;6.88;2.85;;;;;;;-142.75;100.00;77462.13;5049758;28;20048;-70
2022/01/01 17:22:48;;;;;;;6.28;3.10;;;;;;;-142.75;100.00;77462.13;5049046;28;20118;-70
2022/01/01 17:25:22;;;;;;;8.73;3.45;;;;;;;-142.75;100.00;77470.00;5029594;28;20411;-70
2022/01/01 17:27:54;;;;;;;7.03;3.63;;;;;;;-142.75;100.00;77477.88;5049529;28;20939;-71
2022/01/01 17:30:19;;;;;;;8.32;4.53;;;;;;;-142.75;100.00;77473.94;5048702;28;20026;-71
2022/01/01 17:32:47;;;;;;;6.68;3.72;;;;;;;-142.75;100.00;77460.13;5049242;28;20027;-70
2022/01/01 17:35:38;;;;;;;5.57;3.00;;;;;;;-142.75;100.00;77456.22;5049112;28;20044;-71
2022/01/01 17:39:55;;;;;;;7.18;3.42;;;;;;;-142.75;100.00;77448.34;5048800;28;20029;-71
2022/01/01 17:41:06;;;;;;;7.07;3.13;;;;;;;-142.75;100.00;77462.13;5047899;28;20095;-71
2022/01/01 17:43:33;;;;;;;5.90;3.30;;;;;;;-142.75;100.00;77452.25;5048892;28;20446;-71
2022/01/01 17:45:59;;;;;;;5.25;2.92;;;;;;;-142.75;100.00;77454.25;5048874;28;20017;-71
2022/01/01 17:48:36;;;;;;;7.65;2.72;;;;;;;-142.75;100.00;77456.22;5046017;28;20478;-71
2022/01/01 17:51:08;;;;;;;5.20;2.70;;;;;;;-142.75;100.00;77460.13;5047158;28;20032;-71
2022/01/01 17:53:36;;;;;;;4.60;2.58;;;;;;;-142.75;100.00;77456.22;5048652;28;20027;-70
2022/01/01 17:56:07;;;;;;;5.40;2.75;;;;;;;-142.75;100.00;77456.22;5048784;28;20021;-71
2022/01/01 17:58:34;;;;;;;6.57;2.90;;;;;;;-142.75;100.00;77436.50;5048657;28;20579;-70
2022/01/01 18:01:02;;;;;;;8.35;3.22;;;;;;;-142.75;100.00;77452.25;5047949;28;20029;-71
2022/01/01 18:03:27;;;;;;;7.20;2.88;;;;;;;-142.75;100.00;77460.13;5048782;28;20017;-71
2022/01/01 18:05:54;;;;;;;8.30;3.30;;;;;;;-142.75;100.00;77466.03;5048806;28;20375;-70
2022/01/01 18:08:24;;;;;;;4.80;2.88;;;;;;;-142.75;100.00;77468.03;5048559;28;20067;-70
2022/01/01 18:10:55;;;;;;;7.65;2.95;;;;;;;-142.75;100.00;77471.97;5046425;28;20035;-71
2022/01/01 18:13:43;;;;;;;5.85;2.95;;;;;;;-142.75;100.00;77473.94;5046111;28;20029;-70
2022/01/01 18:16:10;;;;;;;6.40;2.88;;;;;;;-142.75;100.00;77479.84;5047874;28;20032;-71
2022/01/01 18:18:50;;;;;;;12.48;2.88;;;;;;;-142.75;100.00;77487.72;5045993;28;20059;-70
2022/01/01 18:21:17;;;;;;;6.53;2.50;;;;;;;-142.75;100.00;77477.88;5047824;28;20106;-71
2022/01/01 18:24:03;;;;;;;5.43;2.70;;;;;;;-142.75;100.00;77470.00;5048158;28;20021;-70
2022/01/01 18:26:34;;;;;;;7.07;3.03;;;;;;;-142.75;100.00;77466.03;5048413;28;20031;-71
2022/01/01 18:29:00;;;;;;;6.80;3.47;;;;;;;-142.75;100.00;77454.25;5048268;28;20491;-70
2022/01/01 18:31:26;;;;;;;6.95;3.17;;;;;;;-142.75;100.00;77444.38;5047538;28;20036;-70
2022/01/01 18:33:52;;;;;;;5.75;3.42;;;;;;;-142.75;100.00;77434.53;5048397;28;20490;-71
2022/01/01 18:36:18;;;;;;;6.45;3.20;;;;;;;-142.75;100.00;77442.41;5048135;28;20154;-70
2022/01/01 18:38:48;;;;;;;8.85;3.33;;;;;;;-142.75;100.00;77438.47;5048368;28;20033;-71
2022/01/01 18:41:14;;;;;;;6.45;3.13;;;;;;;-142.75;100.00;77444.38;5047545;28;20024;-71
2022/01/01 18:43:39;;;;;;;7.72;3.35;;;;;;;-142.75;100.00;77442.41;5048080;28;20708;-71
2022/01/01 18:46:05;;;;;;;6.78;3.40;;;;;;;-142.75;100.00;77438.47;5048268;28;20528;-70
2022/01/01 18:48:30;;;;;;;5.60;3.15;;;;;;;-142.75;100.00;77448.34;5046346;28;20118;-70
2022/01/01 18:51:17;;;;;;;6.32;3.30;;;;;;;-142.75;100.00;77440.44;5047477;28;20024;-71
2022/01/01 18:53:53;;;;;;;8.75;3.58;;;;;;;-142.75;100.00;77444.38;5048158;28;20029;-71
2022/01/01 18:56:28;;;;;;;6.30;3.17;;;;;;;-142.75;100.00;77452.25;5048290;28;20060;-71
2022/01/01 18:58:55;;;;;;;5.55;3.42;;;;;;;-142.75;100.00;77456.22;5047358;28;20060;-71
2022/01/01 19:01:43;;;;;;;6.45;3.75;;;;;;;-142.75;100.00;77460.13;5047440;28;20033;-71
2022/01/01 19:04:14;;;;;;;7.30;3.47;;;;;;;-142.75;100.00;77475.91;5047749;28;20112;-70
2022/01/01 19:06:43;;;;;;;8.43;3.92;;;;;;;-142.75;100.00;77495.59;5047862;28;20021;-71
2022/01/01 19:09:14;;;;;;;7.03;3.97;;;;;;;-142.75;100.00;77497.56;5048004;28;20025;-70
2022/01/01 19:11:40;;;;;;;7.82;3.60;;;;;;;-142.75;100.00;77507.41;5047198;28;20028;-70
2022/01/01 19:14:09;;;;;;;6.50;3.55;;;;;;;-142.75;100.00;77511.34;5047980;28;20048;-71
2022/01/01 19:16:35;;;;;;;9.25;3.90;;;;;;;-142.75;100.00;77525.13;5047871;28;20064;-70
2022/01/01 19:19:01;;;;;;;7.65;3.78;;;;;;;-142.75;100.00;77531.03;5047970;28;20025;-70
2022/01/01 19:21:26;;;;;;;;;;;;;;;-142.75;100.00;77534.97;5047206;28;20036;-70
2022/01/01 19:23:55;;;;;;;8.77;3.95;;;;;;;-142.75;100.00;77554.66;5051743;28;20362;-67
2022/01/01 19:26:28;;;;;;;7.63;3.58;;;;;;;-142.75;100.00;77560.56;5051852;28;20096;-68
2022/01/01 19:28:55;;;;;;;6.10;3.85;;;;;;;-142.75;100.00;77574.34;5052483;28;20032;-71
2022/01/01 19:31:21;;;;;;;;;;;;;;;-142.75;100.00;77588.13;5051655;28;20128;-71
2022/01/01 19:33:47;;;;;;;8.85;4.35;;;;;;;-142.75;100.00;77590.09;5052066;28;19916;-70
2022/01/01 19:36:13;;;;;;;11.00;4.25;;;;;;;-142.75;100.00;77588.13;5051300;28;20016;-70
2022/01/01 19:38:39;;;;;;;9.80;4.65;;;;;;;-142.75;100.00;77578.28;5065359;28;20445;-70
2022/01/01 19:41:14;;;;;;;10.98;4.97;;;;;;;-142.75;100.00;77564.50;5070753;28;20099;-70
2022/01/01 19:44:04;;;;;;;10.70;4.70;;;;;;;-142.75;100.00;77554.66;5071646;28;20039;-70
2022/01/01 19:46:38;;;;;;;8.02;4.28;;;;;;;-142.75;100.00;77542.84;5071329;28;20027;-70
2022/01/01 19:49:09;;;;;;;7.50;3.97;;;;;;;-142.75;100.00;77519.22;5070606;28;20486;-71
2022/01/01 19:51:35;;;;;;;6.07;3.60;;;;;;;-142.75;100.00;77509.38;5052300;28;20025;-71
2022/01/01 19:54:00;;;;;;;9.88;3.88;;;;;;;-142.75;100.00;77499.53;5051424;28;20039;-70
2022/01/01 19:56:25;;;;;;;7.22;3.60;;;;;;;-142.75;100.00;77499.53;5051263;28;20020;-71
2022/01/01 19:58:50;;;;;;;;;;;;;;;-142.75;100.00;77493.63;5052783;28;20040;-70
2022/01/01 20:01:16;;;;;;;10.90;5.00;;;;;;;-142.75;100.00;77497.56;5052154;28;19939;-70
2022/01/01 20:03:41;;;;;;;;;;;;;;;-142.75;100.00;77503.47;5070876;28;20478;-70
2022/01/01 20:06:07;;;;;;;8.55;3.78;;;;;;;-142.75;100.00;77513.31;5072242;28;19985;-67
2022/01/01 20:08:32;;;;;;;;;;;;;;;-142.75;100.00;77517.25;5073159;28;20393;-69
2022/01/01 20:10:57;;;;;;;12.68;6.93;;;;;;;-142.75;100.00;77521.19;5069842;28;19920;-70
2022/01/01 20:13:22;;;;;;;6.65;3.72;;;;;;;-142.75;100.00;77527.09;5069947;28;20148;-70
2022/01/01 20:15:48;;;;;;;6.78;4.25;;;;;;;-142.75;100.00;77540.88;5071461;28;20052;-70
2022/01/01 20:18:13;;;;;;;9.40;3.42;;;;;;;-142.75;100.00;77554.66;5056784;28;20102;-70
2022/01/01 20:20:38;;;;;;;8.63;3.45;;;;;;;-142.75;100.00;77544.81;5049799;28;20024;-70
2022/01/01 20:23:04;;;;;;;12.57;3.85;;;;;;;-142.75;100.00;77531.03;5049941;28;20027;-70
2022/01/01 20:25:29;;;;;;;;;;;;;;;-142.75;100.00;77531.03;5050694;28;20025;-70
2022/01/01 20:27:54;;;;;;;10.38;3.97;;;;;;;-142.75;100.00;77527.09;5051035;28;19931;-70
2022/01/01 20:30:19;;;;;;;6.25;3.72;;;;;;;-142.75;100.00;77519.22;5050064;28;20032;-71
2022/01/01 20:32:45;;;;;;;6.82;3.63;;;;;;;-142.75;100.00;77515.28;5050216;28;20029;-67
2022/01/01 20:35:11;;;;;;;6.50;3.33;;;;;;;-142.75;100.00;77525.13;5050347;28;20220;-67
2022/01/01 20:37:36;;;;;;;7.68;4.18;;;;;;;-142.75;100.00;77509.38;5049424;28;20033;-68
2022/01/01 20:40:03;;;;;;;9.27;3.90;;;;;;;-142.75;100.00;77503.47;5048460;28;20136;-70
2022/01/01 20:42:28;;;;;;;10.07;3.70;;;;;;;-142.75;100.00;77505.44;5050191;28;20025;-70
2022/01/01 20:44:53;;;;;;;9.07;3.70;;;;;;;-142.75;100.00;77491.66;5050612;28;20067;-70
2022/01/01 20:47:19;;;;;;;;;;;;;;;-142.75;100.00;77475.91;5051072;28;20035;-70
2022/01/01 20:49:44;;;;;;;12.27;4.50;;;;;;;-142.75;100.00;77479.84;5047143;28;21013;-70
2022/01/01 20:52:10;;;;;;;9.98;5.28;;;;;;;-142.75;100.00;77468.03;5050171;28;20036;-70
2022/01/01 20:54:35;;;;;;;;;;;;;;;-142.75;100.00;77475.91;5049722;28;20028;-70
2022/01/01 20:57:01;;;;;;;13.20;5.78;;;;;;;-142.75;100.00;77485.75;5048970;28;20366;-70
2022/01/01 20:59:27;;;;;;;13.07;5.05;;;;;;;-142.75;100.00;77489.69;5050251;28;20063;-70
2022/01/01 21:01:58;;;;;;;7.57;3.53;;;;;;;-142.75;100.00;77507.41;5049344;28;20056;-70
2022/01/01 21:04:25;;;;;;;9.43;4.63;;;;;;;-142.75;100.00;77513.31;5050443;28;20024;-70
2022/01/01 21:06:51;;;;;;;10.40;5.10;;;;;;;-142.75;100.00;77536.94;5050246;28;20029;-70
2022/01/01 21:09:18;;;;;;;9.38;4.28;;;;;;;-142.75;100.00;77536.94;5050124;28;20032;-70
2022/01/01 21:11:44;;;;;;;8.57;4.70;;;;;;;-142.75;100.00;77513.31;5049146;28;20100;-72
2022/01/01 21:14:12;;;;;;;10.07;5.50;;;;;;;-142.75;100.00;77519.22;5048259;28;20028;-68
2022/01/01 21:16:37;;;;;;;8.48;4.38;;;;;;;-142.75;100.00;77519.22;5048802;28;20033;-67
2022/01/01 21:19:04;;;;;;;12.30;6.32;;;;;;;-142.75;100.00;77515.28;5051099;28;20029;-67
2022/01/01 21:21:30;;;;;;;9.27;4.03;;;;;;;-142.75;100.00;77517.25;5049930;28;20059;-67
2022/01/01 21:23:57;;;;;;;7.40;3.90;;;;;;;-142.75;100.00;77519.22;5051272;28;20071;-68
2022/01/01 21:26:23;;;;;;;8.75;4.35;;;;;;;-142.75;100.00;77523.16;5050011;28;20063;-70
2022/01/01 21:28:48;;;;;;;8.32;4.07;;;;;;;-142.75;100.00;77534.97;5050363;28;20033;-67
2022/01/01 21:31:14;;;;;;;8.95;4.28;;;;;;;-142.75;100.00;77531.03;5049108;28;20033;-68
2022/01/01 21:33:39;;;;;;;;;;;;;;;-142.75;100.00;77534.97;5048123;28;20378;-68
2022/01/01 21:36:05;;;;;;;11.32;5.57;;;;;;;-142.75;100.00;77534.97;5047115;28;20515;-68
2022/01/01 21:38:31;;;;;;;19.65;9.65;;;;;;;-142.75;100.00;77527.09;5049258;28;20032;-69
2022/01/01 21:40:56;;;;;;;12.90;6.03;;;;;;;-142.75;100.00;77531.03;5048521;28;20029;-69
2022/01/01 21:43:22;;;;;;;9.65;4.60;;;;;;;-142.75;100.00;77515.28;5049650;28;20425;-69
2022/01/01 21:45:49;;;;;;;11.93;5.05;;;;;;;-142.75;100.00;77511.34;5057138;28;20024;-69
2022/01/01 21:48:15;;;;;;;17.10;6.80;;;;;;;-142.75;100.00;77503.47;5067842;28;20024;-69
2022/01/01 21:50:44;;;;;;;15.88;6.75;;;;;;;-142.75;100.00;77511.34;5068178;28;20039;-69
2022/01/01 21:53:10;;;;;;;12.23;6.47;;;;;;;-142.75;100.00;77503.47;5068968;28;20021;-69
2022/01/01 21:55:35;;;;;;;10.10;5.32;;;;;;;-142.75;100.00;77513.31;5068822;28;20025;-70
2022/01/01 21:58:01;;;;;;;12.00;6.38;;;;;;;-142.75;100.00;77509.38;5069065;28;20036;-69
2022/01/01 22:00:26;;;;;;;8.15;5.00;;;;;;;-142.75;100.00;77531.03;5068322;28;20029;-69
2022/01/01 22:02:52;;;;;;;38.72;34.67;;;;;;;-142.75;100.00;77540.88;5068829;28;20027;-70
2022/01/01 22:05:18;;;;;;;14.82;10.35;;;;;;;-142.75;100.00;77538.91;5069083;28;20052;-70
2022/01/01 22:07:43;;;;;;;15.40;12.90;;;;;;;-142.75;100.00;77540.88;5065393;28;20028;-69
2022/01/01 22:10:09;;;;;;;11.02;5.55;;;;;;;-142.75;100.00;77540.88;5048263;28;20027;-70
2022/01/01 22:12:34;;;;;;;9.07;4.50;;;;;;;-142.75;100.00;77531.03;5048660;28;20025;-69
2022/01/01 22:15:00;;;;;;;11.73;5.72;;;;;;;-142.75;100.00;77525.13;5048450;28;20060;-69
2022/01/01 22:17:25;;;;;;;15.57;5.40;;;;;;;-142.75;100.00;77525.13;5048490;28;20029;-69
2022/01/01 22:19:51;;;;;;;10.27;5.68;;;;;;;-142.75;100.00;77531.03;5048095;28;20111;-69
2022/01/01 22:22:16;;;;;;;;;;;;;;;-142.75;100.00;77527.09;5049130;28;20111;-70
2022/01/01 22:24:44;;;;;;;11.27;5.65;;;;;;;-142.75;100.00;77534.97;5048714;28;19913;-69
2022/01/01 22:27:09;;;;;;;11.93;5.25;;;;;;;-142.75;100.00;77534.97;5048497;28;20024;-69
2022/01/01 22:29:34;;;;;;;15.57;6.55;;;;;;;-142.75;100.00;77538.91;5047174;28;20092;-69
2022/01/01 22:31:59;;;;;;;12.43;6.40;;;;;;;-142.75;100.00;77534.97;5047800;28;20032;-70
2022/01/01 22:34:25;;;;;;;12.63;6.47;;;;;;;-142.75;100.00;77531.03;5047008;28;20025;-69
2022/01/01 22:36:50;;;;;;;10.98;5.05;;;;;;;-142.75;100.00;77538.91;5048533;28;20079;-69
2022/01/01 22:39:15;;;;;;;12.10;5.75;;;;;;;-142.75;100.00;77527.09;5048455;28;20470;-71
2022/01/01 22:41:41;;;;;;;9.82;5.22;;;;;;;-142.75;100.00;77533.00;5047381;28;20023;-71
2022/01/01 22:44:07;;;;;;;9.65;5.57;;;;;;;-142.75;100.00;77527.09;5048443;28;20037;-70
2022/01/01 22:46:32;;;;;;;;;;;;;;;-142.75;100.00;77525.13;5049050;28;20051;-70
2022/01/01 22:48:57;;;;;;;12.98;5.07;;;;;;;-142.75;100.00;77538.91;5047286;28;19919;-71
2022/01/01 22:51:23;;;;;;;13.45;4.97;;;;;;;-142.75;100.00;77542.84;5046402;28;20483;-71
2022/01/01 22:53:48;;;;;;;8.93;4.70;;;;;;;-142.75;100.00;77542.84;5048537;28;20727;-70
2022/01/01 22:56:13;;;;;;;8.45;4.82;;;;;;;-142.75;100.00;77554.66;5048082;28;20100;-71
2022/01/01 22:58:38;;;;;;;10.85;5.07;;;;;;;-142.75;100.00;77546.78;5051903;28;20032;-70
2022/01/01 23:01:23;;;;;;;8.48;4.43;;;;;;;-142.75;100.00;77542.84;5051286;28;20029;-72
2022/01/01 23:03:49;;;;;;;14.20;5.35;;;;;;;-142.75;100.00;77546.78;5052286;28;20041;-71
2022/01/01 23:06:17;;;;;;;9.95;4.97;;;;;;;-142.75;100.00;77534.97;5051865;28;20051;-70
2022/01/01 23:08:43;;;;;;;10.15;4.65;;;;;;;-142.75;100.00;77534.97;5052283;28;20036;-70
2022/01/01 23:11:08;;;;;;;9.27;4.50;;;;;;;-142.75;100.00;77546.78;5050073;28;20398;-70
2022/01/01 23:13:34;;;;;;;8.95;4.72;;;;;;;-142.75;100.00;77552.69;5050827;28;20079;-70
2022/01/01 23:16:13;;;;;;;10.35;5.22;;;;;;;-142.75;100.00;77544.81;5052056;28;20082;-70
2022/01/01 23:18:55;;;;;;;10.48;5.07;;;;;;;-142.75;100.00;77558.59;5053130;28;20021;-71
2022/01/01 23:21:21;;;;;;;11.43;5.22;;;;;;;-142.75;100.00;77554.66;5052465;28;20393;-70
2022/01/01 23:23:48;;;;;;;14.10;5.30;;;;;;;-142.75;100.00;77556.63;5051599;28;20031;-70
2022/01/01 23:26:22;;;;;;;10.75;5.10;;;;;;;-142.75;100.00;77546.78;5052695;28;20023;-70
2022/01/01 23:28:54;;;;;;;9.80;5.20;;;;;;;-142.75;100.00;77552.69;5052524;28;20056;-69
2022/01/01 23:31:25;;;;;;;9.50;4.47;;;;;;;-142.75;100.00;77562.53;5052894;28;20028;-69
2022/01/01 23:33:52;;;;;;;13.13;4.82;;;;;;;-142.75;100.00;77570.41;5052210;28;20041;-69
2022/01/01 23:36:19;;;;;;;13.00;5.75;;;;;;;-142.75;100.00;77574.34;5052104;28;20551;-69
2022/01/01 23:38:44;;;;;;;11.20;4.80;;;;;;;-142.75;100.00;77586.16;5050453;28;20071;-69
2022/01/01 23:41:10;;;;;;;12.63;5.15;;;;;;;-142.75;100.00;77592.06;5049638;28;20033;-68
2022/01/01 23:43:36;;;;;;;12.93;5.97;;;;;;;-142.75;100.00;77590.09;5051506;28;20116;-69
2022/01/01 23:46:03;;;;;;;15.40;5.65;;;;;;;-142.75;100.00;77580.25;5061091;22;20180;-66
